Time;durP1;ratioP1;P1;durP2;ratioP2;P2;SDS_P1;SDS_P2;PMS_P1;PMS_P2;Temp;Humidity;BMP_temperature;BMP_pressure;BME280_temperature;BME280_humidity;BME280_pressure;Samples;Min_cycle;Max_cycle;Signal;HPM_P1;HPM_P2
2022/09/12 08:28:21;;;;;;;20.70;11.43;;;;;;;12.78;68.60;99746.28;6211646;22;20033;-93
2022/09/12 08:30:50;;;;;;;21.45;11.35;;;;;;;13.10;68.53;99786.28;6147259;23;20028;-93
2022/09/12 08:33:16;;;;;;;21.73;11.25;;;;;;;13.16;68.59;99796.00;6151925;23;20108;-93
2022/09/12 08:35:42;;;;;;;23.63;12.63;;;;;;;12.77;68.53;99731.75;6169383;23;20021;-90
2022/09/12 08:38:10;;;;;;;33.80;13.85;;;;;;;13.04;68.19;99788.34;6166606;23;20458;-91
2022/09/12 09:18:28;;;;;;;35.35;17.55;;;;;;;13.59;63.74;99773.34;6248552;22;20035;-93
2022/09/12 09:29:01;;;;;;;41.53;19.10;;;;;;;13.93;62.33;99804.72;6165800;23;20351;-90
2022/09/12 09:31:37;;;;;;;40.45;18.08;;;;;;;13.69;62.54;99755.72;6108707;23;20027;-89
2022/09/12 09:40:24;;;;;;;42.50;19.35;;;;;;;13.76;61.40;99737.63;6211801;22;20024;-91
2022/09/12 09:43:23;;;;;;;44.03;20.88;;;;;;;14.28;62.13;99803.56;6040697;23;20026;-90
2022/09/12 09:49:42;;;;;;;50.28;21.13;;;;;;;14.33;60.87;99805.31;6179629;22;20025;-91
2022/09/12 09:52:13;;;;;;;52.85;22.20;;;;;;;14.28;60.14;99789.00;6138494;23;20032;-87
2022/09/12 09:58:05;;;;;;;50.47;22.73;;;;;;;14.41;59.93;99804.50;6218556;23;20040;-91
2022/09/12 10:07:26;;;;;;;53.30;23.33;;;;;;;14.59;59.97;99808.06;6243274;22;20052;-89
2022/09/12 10:18:31;;;;;;;52.72;24.13;;;;;;;14.65;60.02;99811.44;6209997;22;20085;-88
2022/09/12 10:21:00;;;;;;;61.60;24.77;;;;;;;14.61;60.52;99807.75;6184035;22;20044;-89
2022/09/12 10:23:36;;;;;;;49.67;24.20;;;;;;;14.74;60.25;99810.28;6228750;22;20039;-87
2022/09/12 10:26:21;;;;;;;55.73;24.90;;;;;;;14.69;59.61;99804.13;6168398;23;20060;-90
2022/09/12 10:44:59;;;;;;;46.70;24.65;;;;;;;14.93;59.02;99790.63;6217956;23;20025;-87
2022/09/12 10:47:30;;;;;;;65.47;27.63;;;;;;;15.09;59.28;99821.16;6220387;23;20020;-90
2022/09/12 10:50:44;;;;;;;58.90;25.27;;;;;;;15.24;58.53;99817.06;6175197;23;20021;-92
2022/09/12 10:53:28;;;;;;;57.25;25.15;;;;;;;15.19;57.91;99782.22;6191612;23;20027;-91
2022/09/12 11:08:37;;;;;;;53.35;24.58;;;;;;;15.32;56.80;99804.34;6180579;23;20091;-90
2022/09/12 11:21:03;;;;;;;56.75;25.02;;;;;;;15.46;55.36;99799.41;6193738;23;20013;-91
2022/09/12 11:24:02;;;;;;;73.75;25.33;;;;;;;15.31;56.44;99787.03;6165091;23;20106;-88
2022/09/12 11:27:02;;;;;;;60.75;23.67;;;;;;;15.46;55.67;99794.72;6187982;23;20017;-89
2022/09/12 11:29:30;;;;;;;69.65;25.88;;;;;;;15.44;55.86;99798.94;6196579;22;20016;-91
2022/09/12 11:35:57;;;;;;;56.88;24.17;;;;;;;15.00;56.60;99735.06;6218334;23;20020;-91
2022/09/12 11:52:38;;;;;;;51.27;22.93;;;;;;;15.15;54.42;99778.53;6242537;22;20025;-88
2022/09/12 12:04:19;;;;;;;51.40;23.38;;;;;;;14.86;54.44;99759.22;6255469;22;20111;-89
2022/09/12 12:07:35;;;;;;;52.22;22.92;;;;;;;15.04;54.27;99774.53;6218126;23;20043;-88
2022/09/12 12:10:01;;;;;;;58.67;21.98;;;;;;;14.70;54.85;99731.44;6192693;23;20038;-88
2022/09/12 12:12:28;;;;;;;49.67;21.40;;;;;;;14.85;54.51;99755.69;6192840;23;20020;-89
2022/09/12 12:14:56;;;;;;;52.40;22.60;;;;;;;15.03;54.85;99772.91;6217615;23;20020;-85
2022/09/12 12:17:24;;;;;;;51.97;23.38;;;;;;;15.18;53.46;99780.63;6217355;23;20008;-88
2022/09/12 12:20:01;;;;;;;48.75;21.88;;;;;;;15.04;52.84;99730.50;6217519;23;20020;-88
2022/09/12 12:22:27;;;;;;;49.80;23.83;;;;;;;15.28;52.76;99736.16;6244469;23;20070;-87
2022/09/12 12:25:16;;;;;;;44.88;20.55;;;;;;;15.55;52.35;99747.81;6217791;23;20039;-85
2022/09/12 12:27:55;;;;;;;40.50;20.23;;;;;;;15.65;52.94;99743.84;6223761;23;20027;-86
2022/09/12 12:30:30;;;;;;;50.10;20.75;;;;;;;15.73;51.96;99760.34;6217483;23;20016;-86
2022/09/12 12:33:00;;;;;;;45.35;19.75;;;;;;;15.72;52.15;99760.69;6244422;23;20099;-87
2022/09/12 12:35:37;;;;;;;43.83;20.63;;;;;;;15.77;52.40;99756.94;6217040;23;20074;-87
2022/09/12 12:38:06;;;;;;;;;;;;;;;15.65;52.53;99761.19;6192218;23;20012;-89
2022/09/12 12:40:32;;;;;;;45.03;18.95;;;;;;;15.21;52.14;99705.59;6191857;23;19937;-89
2022/09/12 12:43:02;;;;;;;42.03;18.42;;;;;;;15.28;51.99;99718.84;6217290;23;20020;-87
2022/09/12 12:45:28;;;;;;;37.25;16.67;;;;;;;15.51;52.50;99755.94;6244494;23;20016;-86
2022/09/12 12:48:14;;;;;;;46.67;18.70;;;;;;;15.22;52.60;99711.91;6217453;23;20043;-89
2022/09/12 12:50:40;;;;;;;36.97;17.13;;;;;;;15.20;52.57;99704.00;6192477;23;20036;-85
2022/09/12 12:53:19;;;;;;;42.87;17.57;;;;;;;15.35;52.17;99745.84;6243661;23;20030;-86
2022/09/12 12:55:49;;;;;;;33.30;15.63;;;;;;;15.08;51.70;99698.38;6217390;23;20020;-88
2022/09/12 12:58:21;;;;;;;42.95;16.20;;;;;;;15.43;52.47;99737.53;6217066;23;20016;-85
2022/09/12 13:01:08;;;;;;;38.83;15.70;;;;;;;15.28;52.62;99705.88;6216940;23;20118;-87
2022/09/12 13:03:38;;;;;;;42.38;16.88;;;;;;;15.18;52.38;99680.69;6217263;23;20016;-89
2022/09/12 13:06:22;;;;;;;42.35;17.35;;;;;;;15.42;52.47;99713.84;6218735;23;20020;-91
2022/09/12 13:08:59;;;;;;;39.00;17.15;;;;;;;15.37;52.50;99688.47;6217931;23;20016;-88
2022/09/12 13:11:35;;;;;;;32.97;14.27;;;;;;;15.40;51.57;99694.13;6243870;23;20030;-94
2022/09/12 13:14:26;;;;;;;42.72;15.32;;;;;;;15.69;51.95;99742.06;6217018;23;20075;-89
2022/09/12 13:17:00;;;;;;;29.85;13.77;;;;;;;15.33;51.76;99690.28;6192147;23;20022;-90
2022/09/12 13:19:32;;;;;;;23.45;12.90;;;;;;;15.42;51.67;99713.06;6192168;23;20349;-90
2022/09/12 13:22:07;;;;;;;27.63;12.88;;;;;;;15.46;51.76;99720.34;6218484;23;20508;-87
2022/09/12 13:24:45;;;;;;;32.70;13.35;;;;;;;15.36;51.97;99722.66;6218950;23;20126;-83
2022/09/12 13:27:24;;;;;;;40.92;13.75;;;;;;;15.37;52.72;99721.53;6243338;23;20166;-84
2022/09/12 13:30:14;;;;;;;32.38;13.23;;;;;;;15.37;52.15;99730.59;6242806;23;20016;-89
2022/09/12 13:32:42;;;;;;;25.40;12.32;;;;;;;15.41;52.36;99734.28;6192326;23;20019;-85
2022/09/12 13:35:27;;;;;;;27.27;12.23;;;;;;;15.31;52.07;99722.88;6216626;23;20020;-91
2022/09/12 13:38:21;;;;;;;34.67;11.55;;;;;;;15.28;52.57;99741.66;6193282;23;20011;-90
2022/09/12 13:41:09;;;;;;;30.92;12.25;;;;;;;15.22;53.08;99740.25;6218150;23;20020;-86
2022/09/12 13:43:42;;;;;;;32.83;11.30;;;;;;;15.01;53.28;99731.16;6217928;23;20078;-89
2022/09/12 13:46:16;;;;;;;29.05;11.20;;;;;;;14.89;53.27;99723.59;6217369;23;20579;-88
2022/09/12 13:48:46;;;;;;;20.38;10.05;;;;;;;14.47;53.21;99678.59;6244086;23;20521;-92
2022/09/12 13:51:28;;;;;;;28.33;10.63;;;;;;;14.83;53.30;99726.88;6217563;23;20012;-88
2022/09/12 13:53:57;;;;;;;18.23;9.65;;;;;;;14.70;53.96;99723.19;6191867;23;20012;-89
2022/09/12 13:56:24;;;;;;;30.30;10.35;;;;;;;14.75;54.13;99734.03;6192822;23;20078;-86
2022/09/12 13:58:56;;;;;;;18.02;10.07;;;;;;;14.55;54.07;99702.56;6243491;23;20081;-90
2022/09/12 14:01:35;;;;;;;36.55;10.90;;;;;;;14.67;54.32;99732.94;6192337;23;20413;-88
2022/09/12 14:07:08;;;;;;;28.67;9.68;;;;;;;14.28;55.02;99685.31;6191789;23;20016;-88
2022/09/12 14:09:38;;;;;;;22.00;8.85;;;;;;;14.24;54.49;99689.06;6216640;23;20015;-89
2022/09/12 14:12:24;;;;;;;21.13;9.18;;;;;;;14.31;54.85;99689.34;6216732;23;20024;-90
2022/09/12 14:14:51;;;;;;;17.63;9.23;;;;;;;14.14;55.42;99654.47;6216420;23;20012;-90
2022/09/12 14:17:28;;;;;;;24.10;8.43;;;;;;;14.56;54.71;99699.47;6217646;23;20103;-90
2022/09/12 14:20:02;;;;;;;17.67;8.40;;;;;;;14.78;54.11;99719.59;6241413;23;20024;-90
2022/09/12 14:22:30;;;;;;;18.50;7.13;;;;;;;14.71;53.59;99697.31;6243439;23;20020;-87
2022/09/12 14:24:58;;;;;;;16.15;7.47;;;;;;;14.63;53.28;99671.44;6190886;23;20584;-90
2022/09/12 14:27:43;;;;;;;23.30;7.95;;;;;;;14.85;53.75;99700.63;6216643;23;20043;-88
2022/09/12 14:30:21;;;;;;;21.40;7.93;;;;;;;14.91;52.90;99723.28;6192809;23;20016;-89
2022/09/12 14:33:10;;;;;;;31.52;8.68;;;;;;;14.85;53.56;99721.84;6192595;23;20016;-91
2022/09/12 14:35:39;;;;;;;36.15;9.35;;;;;;;14.73;53.82;99723.34;6192574;23;20020;-88
2022/09/12 14:38:29;;;;;;;19.65;7.68;;;;;;;14.50;54.58;99716.44;6244316;23;20084;-89
2022/09/12 14:41:03;;;;;;;18.95;8.75;;;;;;;14.56;54.79;99726.16;6217596;23;20461;-88
2022/09/12 14:43:44;;;;;;;27.55;9.70;;;;;;;14.34;54.74;99691.44;6167656;23;20016;-88
2022/09/12 14:46:32;;;;;;;20.88;8.48;;;;;;;14.32;55.20;99701.94;6217606;23;20027;-86
2022/09/12 14:49:14;;;;;;;21.40;8.52;;;;;;;14.30;53.96;99706.97;6217797;23;20488;-93
2022/09/12 14:51:55;;;;;;;22.02;8.05;;;;;;;14.41;54.69;99738.50;6189179;23;20338;-87
2022/09/12 14:54:27;;;;;;;24.17;7.63;;;;;;;14.37;53.76;99733.97;6216586;23;20070;-90
2022/09/12 14:57:05;;;;;;;18.60;7.57;;;;;;;14.10;53.40;99716.72;6191938;23;20402;-89
2022/09/12 14:59:34;;;;;;;11.73;7.65;;;;;;;14.22;53.75;99744.34;6217273;23;20096;-89
2022/09/12 15:02:13;;;;;;;32.83;8.80;;;;;;;14.18;53.74;99743.41;6243316;23;20095;-91
2022/09/12 15:04:41;;;;;;;18.17;7.00;;;;;;;14.02;54.36;99720.31;6186253;23;20032;-89
2022/09/12 15:07:35;;;;;;;16.85;7.40;;;;;;;14.14;54.39;99738.88;6187402;23;20409;-89
2022/09/12 15:10:05;;;;;;;31.20;8.00;;;;;;;13.99;55.03;99718.19;6209137;23;20044;-88
2022/09/12 15:12:32;;;;;;;16.80;7.10;;;;;;;14.13;54.25;99732.56;6211729;23;20099;-92
2022/09/12 15:15:06;;;;;;;22.45;7.35;;;;;;;14.10;53.86;99736.78;6186909;23;20028;-86
2022/09/12 15:17:33;;;;;;;26.33;8.98;;;;;;;14.09;54.45;99734.34;6212012;23;20048;-89
2022/09/12 15:20:02;;;;;;;36.42;7.28;;;;;;;14.03;53.81;99735.66;6213019;23;20026;-87
2022/09/12 15:22:29;;;;;;;29.95;8.43;;;;;;;13.70;53.42;99678.47;6187388;23;20025;-92
2022/09/12 15:24:56;;;;;;;18.50;7.65;;;;;;;13.83;54.01;99709.66;6212475;23;20017;-87
2022/09/12 15:27:25;;;;;;;18.75;7.32;;;;;;;14.03;53.65;99743.91;6213587;23;20036;-92
2022/09/12 15:29:52;;;;;;;16.90;6.35;;;;;;;13.57;54.07;99677.50;6213708;23;20332;-91
2022/09/12 15:32:27;;;;;;;15.50;6.80;;;;;;;13.77;52.91;99722.75;6137683;23;20016;-89
2022/09/12 15:34:55;;;;;;;16.15;6.22;;;;;;;13.79;53.18;99717.72;6185507;23;20024;-91
2022/09/12 15:37:22;;;;;;;16.53;6.20;;;;;;;13.75;53.93;99708.53;6162389;23;20013;-89
2022/09/12 15:39:50;;;;;;;18.02;6.88;;;;;;;13.82;54.33;99714.34;6161997;23;20251;-87
2022/09/12 15:42:22;;;;;;;16.35;6.82;;;;;;;13.90;54.48;99726.44;6140399;23;20024;-91
2022/09/12 15:44:49;;;;;;;22.73;8.25;;;;;;;13.88;54.04;99734.22;6163772;23;20024;-88
2022/09/12 15:47:15;;;;;;;34.30;11.53;;;;;;;13.74;53.55;99711.59;6140656;23;20065;-91
2022/09/12 15:49:41;;;;;;;19.92;8.82;;;;;;;13.59;53.81;99693.66;6139806;23;20020;-94
2022/09/12 15:52:14;;;;;;;24.50;8.52;;;;;;;13.60;53.80;99717.25;6188603;23;20020;-90
2022/09/12 15:54:42;;;;;;;27.55;9.27;;;;;;;13.80;54.72;99746.03;6188272;23;20369;-92
2022/09/12 15:57:09;;;;;;;20.75;8.27;;;;;;;13.54;54.59;99724.03;6162887;23;20774;-87
2022/09/12 15:59:36;;;;;;;15.85;7.15;;;;;;;13.59;55.09;99741.19;6162694;23;20016;-88
2022/09/12 16:02:05;;;;;;;12.75;6.55;;;;;;;13.69;54.58;99770.28;6162911;23;20017;-85
2022/09/12 16:04:31;;;;;;;12.23;6.78;;;;;;;13.55;54.51;99753.13;6164644;23;20023;-89
2022/09/12 16:06:58;;;;;;;25.65;7.45;;;;;;;13.38;55.34;99732.75;6215384;23;20020;-89
2022/09/12 16:09:24;;;;;;;18.90;9.27;;;;;;;13.44;55.87;99752.63;6188297;23;20665;-87
2022/09/12 16:11:51;;;;;;;22.30;9.48;;;;;;;13.33;55.59;99749.38;6163207;23;20017;-87
2022/09/12 16:14:19;;;;;;;22.63;8.43;;;;;;;13.15;55.61;99731.25;6162995;23;20032;-88
2022/09/12 16:16:55;;;;;;;15.73;8.43;;;;;;;13.15;55.71;99754.00;6162728;23;20016;-90
2022/09/12 16:19:21;;;;;;;14.40;6.23;;;;;;;13.14;55.35;99746.06;6163753;23;20059;-87
2022/09/12 16:21:49;;;;;;;24.83;9.17;;;;;;;13.12;56.36;99754.66;6166087;23;20013;-91
2022/09/12 16:24:15;;;;;;;16.15;7.45;;;;;;;13.17;55.63;99770.16;6163905;23;20100;-87
2022/09/12 16:26:42;;;;;;;14.90;7.63;;;;;;;12.76;55.54;99712.91;6214052;23;20018;-88
2022/09/12 16:29:11;;;;;;;38.83;9.05;;;;;;;12.73;55.83;99719.81;6187870;23;20028;-89
2022/09/12 16:31:38;;;;;;;19.23;7.40;;;;;;;12.96;56.19;99756.22;6214101;23;20020;-89
2022/09/12 16:34:05;;;;;;;16.98;8.38;;;;;;;12.76;56.58;99738.38;6213637;23;20016;-87
2022/09/12 16:36:33;;;;;;;23.88;7.63;;;;;;;12.84;56.13;99745.81;6189076;23;20016;-91
2022/09/12 16:38:59;;;;;;;17.20;8.15;;;;;;;12.60;56.23;99720.72;6140437;23;20012;-91
2022/09/12 16:41:26;;;;;;;21.25;7.88;;;;;;;12.61;56.96;99742.34;6163986;23;20110;-89
2022/09/12 16:43:53;;;;;;;15.30;7.03;;;;;;;12.87;56.39;99789.09;6188662;23;20252;-90
2022/09/12 16:46:27;;;;;;;16.50;7.45;;;;;;;12.79;57.24;99789.06;6164197;23;20376;-92
2022/09/12 16:48:56;;;;;;;36.53;7.45;;;;;;;12.77;57.02;99778.41;6190989;23;20023;-86
2022/09/12 16:51:29;;;;;;;13.30;6.47;;;;;;;12.91;56.54;99789.28;6164955;23;20020;-86
2022/09/12 16:53:56;;;;;;;15.25;7.25;;;;;;;12.65;56.25;99751.59;6216936;23;20035;-86
2022/09/12 16:56:24;;;;;;;24.48;6.82;;;;;;;12.64;56.19;99752.69;6215336;23;20521;-90
2022/09/12 16:58:51;;;;;;;16.20;6.10;;;;;;;12.74;56.35;99768.06;6187945;23;20020;-90
2022/09/12 17:01:23;;;;;;;10.50;5.90;;;;;;;12.65;56.11;99767.25;6189081;23;20017;-89
2022/09/12 17:03:57;;;;;;;19.65;6.97;;;;;;;12.76;56.58;99779.53;6187266;23;20035;-88
2022/09/12 17:06:24;;;;;;;32.83;6.75;;;;;;;12.73;56.41;99768.38;6188466;23;20039;-88
2022/09/12 17:08:55;;;;;;;14.70;6.25;;;;;;;12.82;56.88;99789.25;6163563;23;20071;-87
2022/09/12 17:11:25;;;;;;;14.93;7.20;;;;;;;12.92;57.08;99801.88;6187973;23;20017;-90
2022/09/12 17:13:55;;;;;;;16.33;5.32;;;;;;;12.76;55.73;99765.81;6161998;23;20023;-87
2022/09/12 17:16:23;;;;;;;20.35;6.50;;;;;;;12.77;56.05;99767.44;6188973;23;20016;-91
2022/09/12 17:18:50;;;;;;;16.80;6.22;;;;;;;12.61;56.33;99749.78;6138249;23;20020;-89
2022/09/12 17:21:17;;;;;;;19.02;6.47;;;;;;;12.72;56.00;99759.34;6138457;23;20494;-89
2022/09/12 17:23:45;;;;;;;23.83;6.60;;;;;;;12.99;55.66;99806.91;6139135;23;20020;-90
2022/09/12 17:26:12;;;;;;;12.48;6.28;;;;;;;13.00;56.28;99800.28;6188066;23;20016;-89
2022/09/12 17:28:40;;;;;;;18.88;6.90;;;;;;;12.96;56.52;99802.06;6188069;23;20055;-92
2022/09/12 17:31:09;;;;;;;12.50;6.75;;;;;;;12.55;56.32;99732.66;6164180;23;20043;-91
2022/09/12 17:33:37;;;;;;;16.38;6.30;;;;;;;12.70;55.90;99759.66;6139434;23;20024;-91
2022/09/12 17:36:15;;;;;;;15.70;6.53;;;;;;;12.67;56.00;99754.00;6138454;23;20021;-89
2022/09/12 17:38:43;;;;;;;18.52;6.47;;;;;;;12.85;56.10;99782.34;6165553;23;20039;-88
2022/09/12 17:41:18;;;;;;;16.90;6.30;;;;;;;12.74;55.85;99757.09;6141865;23;20342;-91
2022/09/12 17:43:49;;;;;;;24.88;7.00;;;;;;;12.72;56.37;99751.13;6139915;23;20016;-91
2022/09/12 17:46:32;;;;;;;11.48;6.50;;;;;;;12.80;56.70;99761.31;6140444;23;20020;-89
2022/09/12 17:48:59;;;;;;;20.85;7.20;;;;;;;12.49;56.69;99716.66;6138451;23;20032;-91
2022/09/12 17:51:29;;;;;;;13.73;7.32;;;;;;;12.74;56.07;99757.09;6190016;23;20471;-91
2022/09/12 17:54:04;;;;;;;13.10;7.00;;;;;;;12.61;56.21;99736.84;6145936;23;20043;-92
2022/09/12 17:56:32;;;;;;;13.13;7.20;;;;;;;12.74;56.87;99773.53;6143484;23;20016;-92
2022/09/12 17:58:59;;;;;;;16.58;7.78;;;;;;;12.80;56.90;99772.28;6168930;23;20024;-91
2022/09/12 18:04:14;;;;;;;12.80;6.40;;;;;;;12.65;56.79;99748.03;6168473;23;20024;-93
2022/09/12 18:06:46;;;;;;;16.95;6.50;;;;;;;12.96;56.58;99791.88;6142119;23;20013;-92
2022/09/12 18:09:16;;;;;;;19.52;6.90;;;;;;;12.76;55.95;99754.84;6219153;23;20016;-93
2022/09/12 18:11:43;;;;;;;15.80;6.75;;;;;;;12.90;56.16;99773.94;6196702;23;20103;-91
2022/09/12 18:14:09;;;;;;;17.77;7.93;;;;;;;12.78;57.15;99758.09;6143244;23;20043;-92
2022/09/12 18:16:37;;;;;;;28.60;6.57;;;;;;;12.82;56.76;99772.00;6193279;23;20370;-94
2022/09/12 18:19:03;;;;;;;20.50;8.02;;;;;;;12.86;57.54;99776.50;6166709;23;20024;-91
2022/09/12 18:21:30;;;;;;;20.15;7.32;;;;;;;12.74;56.50;99748.84;6165693;23;20012;-91
2022/09/12 18:23:58;;;;;;;16.70;7.77;;;;;;;12.97;55.95;99789.94;6187574;23;20017;-90
2022/09/12 18:26:26;;;;;;;16.42;7.60;;;;;;;12.84;56.57;99777.94;6188132;23;20024;-93
2022/09/12 18:28:53;;;;;;;17.27;7.80;;;;;;;12.96;56.68;99785.59;6216595;23;20442;-91
2022/09/12 18:31:25;;;;;;;17.17;7.65;;;;;;;12.71;56.98;99746.75;6140605;23;20017;-89
2022/09/12 18:33:52;;;;;;;14.50;6.78;;;;;;;12.78;57.08;99760.84;6164073;23;20075;-91
2022/09/12 18:36:22;;;;;;;13.38;7.10;;;;;;;12.65;56.51;99757.06;6100827;23;20022;-92
2022/09/12 18:38:50;;;;;;;17.05;7.88;;;;;;;12.55;57.07;99737.31;6098693;23;20033;-89
2022/09/12 18:41:21;;;;;;;13.98;7.88;;;;;;;12.77;57.66;99783.88;6074066;23;20025;-90
2022/09/12 18:43:52;;;;;;;17.15;8.07;;;;;;;12.61;57.65;99745.09;6097212;23;20112;-86
2022/09/12 18:46:22;;;;;;;13.65;7.90;;;;;;;12.89;57.47;99794.28;6121324;23;20025;-87
2022/09/12 18:48:49;;;;;;;16.67;8.00;;;;;;;12.77;58.04;99786.63;6120800;23;20026;-90
2022/09/12 18:51:19;;;;;;;19.67;7.85;;;;;;;12.61;58.02;99752.50;6120604;23;20018;-85
2022/09/12 18:53:56;;;;;;;23.20;8.35;;;;;;;12.55;58.37;99742.78;6097272;23;20141;-89
2022/09/12 18:56:23;;;;;;;;;;;;;;;12.89;58.26;99788.78;6074261;23;20014;-91
2022/09/12 18:58:52;;;;;;;29.17;8.10;;;;;;;12.64;58.21;99762.84;6072931;23;19917;-89
2022/09/12 19:01:30;;;;;;;16.75;8.55;;;;;;;12.82;58.71;99802.97;6121599;23;20078;-89
2022/09/12 19:03:59;;;;;;;15.15;7.65;;;;;;;12.51;58.96;99750.84;6122633;23;20491;-91
2022/09/12 19:06:31;;;;;;;24.90;8.43;;;;;;;12.66;57.64;99766.91;6130656;23;20044;-90
2022/09/12 19:08:58;;;;;;;11.65;7.80;;;;;;;12.52;58.77;99743.47;6074755;23;20436;-91
2022/09/12 19:11:27;;;;;;;16.13;8.48;;;;;;;12.55;59.46;99742.78;6140100;23;20112;-90
2022/09/12 19:13:55;;;;;;;18.05;8.07;;;;;;;12.54;58.35;99743.94;6128023;23;20021;-91
2022/09/12 19:16:25;;;;;;;19.52;8.57;;;;;;;12.53;58.63;99745.88;6105833;23;20017;-91
2022/09/12 19:18:53;;;;;;;26.70;8.90;;;;;;;12.56;59.36;99742.50;6080296;23;20116;-88
2022/09/12 19:21:26;;;;;;;18.48;8.60;;;;;;;12.83;59.26;99782.63;6215472;23;20082;-86
2022/09/12 19:23:59;;;;;;;20.60;8.38;;;;;;;12.82;58.97;99789.25;6171247;23;20016;-91
2022/09/12 19:26:26;;;;;;;16.30;8.30;;;;;;;12.81;59.02;99790.34;6218142;23;20035;-85
2022/09/12 19:28:54;;;;;;;19.58;7.65;;;;;;;12.59;58.07;99754.78;6194200;23;20016;-87
2022/09/12 19:31:22;;;;;;;13.52;7.88;;;;;;;12.71;57.91;99776.91;6245558;23;20023;-86
2022/09/12 19:33:51;;;;;;;17.98;7.75;;;;;;;12.59;57.75;99763.81;6218607;23;20031;-85
2022/09/12 19:36:19;;;;;;;15.95;8.93;;;;;;;12.75;58.40;99786.16;6193391;23;20016;-86
2022/09/12 19:38:48;;;;;;;14.20;7.63;;;;;;;12.62;57.40;99776.09;6245673;23;20452;-85
2022/09/12 19:41:15;;;;;;;14.82;8.10;;;;;;;12.62;57.91;99778.84;6193896;23;20082;-87
2022/09/12 19:43:42;;;;;;;15.63;6.65;;;;;;;12.60;57.68;99786.56;6245747;23;20032;-84
2022/09/12 19:46:17;;;;;;;16.95;7.53;;;;;;;12.42;57.51;99759.06;6245548;23;20050;-86
2022/09/12 19:48:45;;;;;;;15.68;7.30;;;;;;;12.42;57.16;99771.94;6219586;23;20027;-83
2022/09/12 19:51:12;;;;;;;15.00;6.68;;;;;;;12.30;57.16;99761.56;6193913;23;20468;-86
2022/09/12 19:53:39;;;;;;;10.93;7.05;;;;;;;12.37;57.50;99770.13;6245205;23;20501;-84
2022/09/12 19:56:07;;;;;;;12.55;7.07;;;;;;;12.35;57.99;99761.44;6218731;23;20016;-86
2022/09/12 19:58:38;;;;;;;12.32;7.65;;;;;;;12.36;57.79;99768.53;6218963;23;20473;-87
2022/09/12 20:01:13;;;;;;;14.07;8.05;;;;;;;12.31;58.61;99759.63;6193933;23;20023;-88
2022/09/12 20:03:40;;;;;;;19.85;8.88;;;;;;;12.43;58.24;99770.81;6218431;23;20070;-86
2022/09/12 20:06:09;;;;;;;16.80;8.35;;;;;;;12.31;58.23;99760.41;6193264;23;20016;-86
2022/09/12 20:08:38;;;;;;;16.83;8.07;;;;;;;12.42;58.19;99770.00;6218851;23;20074;-86
2022/09/12 20:11:06;;;;;;;11.57;7.88;;;;;;;12.30;58.31;99758.00;6168979;23;20016;-88
2022/09/12 20:13:32;;;;;;;13.32;8.20;;;;;;;12.30;57.37;99747.03;6218788;23;20019;-88
2022/09/12 20:16:08;;;;;;;17.00;7.83;;;;;;;12.45;57.92;99777.63;6193578;23;20023;-87
2022/09/12 20:18:35;;;;;;;13.45;7.38;;;;;;;12.48;58.97;99775.34;6193481;23;20020;-86
2022/09/12 20:21:16;;;;;;;12.25;8.20;;;;;;;12.32;57.61;99750.28;6168870;23;20465;-87
2022/09/12 20:23:44;;;;;;;12.70;7.80;;;;;;;12.44;57.83;99770.50;6245127;23;20023;-85
2022/09/12 20:26:12;;;;;;;16.75;8.07;;;;;;;12.34;57.93;99762.53;6245093;23;20362;-85
2022/09/12 20:28:40;;;;;;;14.32;7.65;;;;;;;12.39;58.30;99780.81;6168452;23;20066;-88
2022/09/12 20:31:11;;;;;;;16.02;7.43;;;;;;;12.31;58.38;99759.63;6218603;23;20453;-84
2022/09/12 20:33:38;;;;;;;11.10;7.40;;;;;;;12.32;58.16;99759.31;6218133;23;20020;-87
2022/09/12 20:36:10;;;;;;;14.43;7.45;;;;;;;12.36;57.81;99771.28;6193221;23;20023;-85
2022/09/12 20:38:37;;;;;;;11.50;7.30;;;;;;;12.42;58.11;99772.75;6218894;23;20012;-85
2022/09/12 20:41:05;;;;;;;;;;;;;;;12.35;58.30;99771.56;6218829;23;20016;-86
2022/09/12 20:43:37;;;;;;;12.88;7.00;;;;;;;12.33;58.47;99771.91;6244992;23;20337;-86
2022/09/12 20:46:09;;;;;;;18.40;7.20;;;;;;;12.28;59.10;99754.75;6245084;23;20016;-86
2022/09/12 20:48:36;;;;;;;12.90;7.20;;;;;;;12.32;59.15;99770.28;6218374;23;20023;-88
2022/09/12 20:51:04;;;;;;;10.73;7.50;;;;;;;12.34;58.59;99762.53;6133122;23;20013;-87
2022/09/12 20:53:30;;;;;;;13.38;7.70;;;;;;;12.14;58.59;99735.66;6181989;23;20021;-86
2022/09/12 20:55:56;;;;;;;15.52;7.63;;;;;;;11.99;58.33;99721.22;6132580;23;20440;-87
2022/09/12 20:58:23;;;;;;;14.35;7.50;;;;;;;12.15;59.18;99731.78;6132190;23;20017;-85
2022/09/12 21:00:49;;;;;;;15.55;7.40;;;;;;;12.26;59.25;99749.59;6182129;23;20028;-90
2022/09/12 21:03:16;;;;;;;14.07;7.65;;;;;;;12.33;59.22;99766.41;6156433;23;20482;-88
2022/09/12 21:05:43;;;;;;;14.13;6.78;;;;;;;12.33;58.92;99760.13;6181976;23;20072;-87
2022/09/12 21:08:09;;;;;;;12.38;7.40;;;;;;;12.01;58.73;99711.88;6182223;23;20017;-90
2022/09/12 21:10:36;;;;;;;14.35;7.13;;;;;;;12.07;59.01;99732.53;6181995;23;20095;-89
2022/09/12 21:13:02;;;;;;;9.70;6.40;;;;;;;12.06;59.20;99728.19;6108059;23;20021;-92
2022/09/12 21:15:28;;;;;;;11.20;6.82;;;;;;;12.19;59.32;99750.03;6157704;23;20450;-87
2022/09/12 21:17:54;;;;;;;11.52;7.50;;;;;;;12.08;59.74;99726.75;6157036;23;20021;-88
2022/09/12 21:20:21;;;;;;;;;;;;;;;12.25;60.46;99752.63;6157074;23;20329;-86
2022/09/12 21:22:47;;;;;;;11.47;7.13;;;;;;;12.07;60.03;99724.31;6157038;23;19927;-90
2022/09/12 21:25:13;;;;;;;14.00;8.00;;;;;;;12.15;60.27;99731.78;6182212;23;20021;-88
2022/09/12 21:27:40;;;;;;;17.00;7.67;;;;;;;12.12;59.29;99725.00;6156688;23;20045;-89
2022/09/12 21:30:06;;;;;;;16.25;7.50;;;;;;;12.21;59.56;99731.34;6181697;23;20109;-91
2022/09/12 21:32:34;;;;;;;12.68;7.85;;;;;;;12.20;59.87;99729.72;6131879;23;20091;-86
2022/09/12 21:35:03;;;;;;;33.60;7.70;;;;;;;12.15;59.14;99729.03;6165447;23;20469;-88
2022/09/12 21:37:29;;;;;;;11.25;6.60;;;;;;;12.19;59.62;99747.31;6192484;23;20043;-89
2022/09/12 21:39:56;;;;;;;16.17;8.07;;;;;;;11.95;59.94;99713.91;6244762;23;20020;-88
2022/09/12 21:42:22;;;;;;;;;;;;;;;12.17;60.02;99744.06;6244838;23;20020;-86
2022/09/12 21:44:48;;;;;;;15.10;7.80;;;;;;;11.98;60.46;99714.09;6217962;23;20279;-90
2022/09/12 21:47:14;;;;;;;17.77;7.75;;;;;;;12.20;59.88;99748.09;6244735;23;20015;-86
2022/09/12 21:49:40;;;;;;;15.00;8.10;;;;;;;12.10;59.99;99724.50;6192130;23;20401;-88
2022/09/12 21:52:07;;;;;;;14.80;7.82;;;;;;;12.11;61.16;99719.84;6217247;23;20043;-89
2022/09/12 21:54:36;;;;;;;10.70;7.47;;;;;;;11.87;61.80;99687.28;6217763;23;20020;-89
2022/09/12 21:57:02;;;;;;;15.60;8.10;;;;;;;12.06;61.95;99712.56;6217712;23;20416;-89
2022/09/12 21:59:28;;;;;;;14.55;7.82;;;;;;;11.94;62.21;99684.91;6217506;23;20019;-87
2022/09/12 22:01:54;;;;;;;14.75;7.80;;;;;;;12.09;62.19;99713.88;6244387;23;20020;-88
2022/09/12 22:04:20;;;;;;;11.17;7.50;;;;;;;11.96;61.88;99696.38;6217359;23;20020;-89
2022/09/12 22:06:46;;;;;;;15.93;8.65;;;;;;;12.15;61.17;99724.38;6217147;23;20103;-88
2022/09/12 22:09:13;;;;;;;14.30;7.55;;;;;;;12.02;61.21;99713.47;6218094;23;20016;-88
2022/09/12 22:11:42;;;;;;;15.27;7.28;;;;;;;12.12;61.28;99719.53;6216566;23;20020;-85
2022/09/12 22:14:09;;;;;;;18.35;7.20;;;;;;;11.88;61.15;99686.97;6191612;23;20102;-86
2022/09/12 22:16:35;;;;;;;;;;;;;;;12.09;61.18;99724.84;6218488;23;20024;-88
2022/09/12 22:19:01;;;;;;;11.93;7.23;;;;;;;11.99;62.21;99710.25;6192691;23;20049;-87
2022/09/12 22:21:28;;;;;;;15.80;7.43;;;;;;;12.09;61.68;99724.84;6217862;23;20020;-87
2022/09/12 22:26:44;;;;;;;11.27;7.22;;;;;;;11.91;61.74;99691.81;6244588;23;20016;-88
2022/09/12 22:29:14;;;;;;;11.30;7.70;;;;;;;12.05;61.71;99702.69;6244857;23;20358;-88
2022/09/12 22:31:41;;;;;;;16.10;8.00;;;;;;;12.03;61.34;99701.41;6218049;23;20099;-89
2022/09/12 22:34:09;;;;;;;11.38;7.28;;;;;;;11.91;60.73;99674.56;6244142;23;20358;-86
2022/09/12 22:36:35;;;;;;;11.98;7.47;;;;;;;12.01;61.64;99687.22;6244034;23;20020;-88
2022/09/12 22:39:02;;;;;;;12.80;7.35;;;;;;;11.98;61.36;99683.97;6218146;23;20043;-91